Time;durP1;ratioP1;P1;durP2;ratioP2;P2;SDS_P1;SDS_P2;PMS_P1;PMS_P2;Temp;Humidity;BMP_temperature;BMP_pressure;BME280_temperature;BME280_humidity;BME280_pressure;Samples;Min_cycle;Max_cycle;Signal;HPM_P1;HPM_P2
2023/10/26 00:00:48;;;;;;;15.95;11.57;;;10.20;99.90;;;;;;5073021;28;20047;-65
2023/10/26 00:03:14;;;;;;;13.15;9.93;;;10.40;99.90;;;;;;5072718;28;20456;-65
2023/10/26 00:05:41;;;;;;;15.50;11.63;;;10.10;99.90;;;;;;5073007;28;20048;-66
2023/10/26 00:08:07;;;;;;;18.02;11.73;;;10.30;99.90;;;;;;5073162;28;20040;-66
2023/10/26 00:10:33;;;;;;;14.93;10.88;;;10.30;99.90;;;;;;5072727;28;20047;-65
2023/10/26 00:12:59;;;;;;;17.75;11.20;;;10.30;99.90;;;;;;5072465;28;20097;-66
2023/10/26 00:15:26;;;;;;;16.75;10.98;;;10.20;99.90;;;;;;5072956;28;20056;-66
2023/10/26 00:17:52;;;;;;;16.33;12.02;;;10.10;99.90;;;;;;5073213;28;20052;-66
2023/10/26 00:20:18;;;;;;;14.23;11.10;;;10.20;99.90;;;;;;5072757;28;20125;-66
2023/10/26 00:22:45;;;;;;;16.88;12.20;;;10.40;99.90;;;;;;5072316;28;20467;-65
2023/10/26 00:25:11;;;;;;;14.57;11.93;;;10.10;99.90;;;;;;5073144;28;20144;-66
2023/10/26 00:27:40;;;;;;;16.30;11.20;;;10.00;99.90;;;;;;5072966;28;20044;-66
2023/10/26 00:30:09;;;;;;;18.38;12.68;;;10.30;99.90;;;;;;5072765;28;20056;-66
2023/10/26 00:32:36;;;;;;;18.02;11.20;;;10.10;99.90;;;;;;5068736;28;20136;-65
2023/10/26 00:35:03;;;;;;;14.57;11.20;;;10.00;99.90;;;;;;5090759;28;20118;-65
2023/10/26 00:37:30;;;;;;;20.08;11.80;;;10.30;99.90;;;;;;5072577;28;20067;-66
2023/10/26 00:39:56;;;;;;;16.10;11.43;;;10.30;99.90;;;;;;5072947;28;20056;-65
2023/10/26 00:42:23;;;;;;;16.75;11.80;;;10.10;99.90;;;;;;5072109;28;20063;-65
2023/10/26 00:44:49;;;;;;;18.73;12.15;;;10.30;99.90;;;;;;5055832;28;20055;-65
2023/10/26 00:47:16;;;;;;;16.95;13.00;;;10.10;99.90;;;;;;5072660;28;20051;-65
2023/10/26 00:49:42;;;;;;;17.23;11.65;;;10.00;99.90;;;;;;5073120;28;20114;-66
2023/10/26 00:52:11;;;;;;;15.80;12.32;;;10.20;99.90;;;;;;5072006;28;20056;-65
2023/10/26 00:54:40;;;;;;;17.13;12.98;;;10.10;99.90;;;;;;5052787;28;20049;-65
2023/10/26 00:57:07;;;;;;;17.58;12.13;;;10.20;99.90;;;;;;5052523;28;20044;-66
2023/10/26 00:59:34;;;;;;;18.20;11.70;;;9.90;99.90;;;;;;5052637;28;20674;-65
2023/10/26 01:02:02;;;;;;;15.40;11.82;;;10.20;99.90;;;;;;5052402;28;20073;-65
2023/10/26 01:04:28;;;;;;;17.02;12.50;;;10.30;99.90;;;;;;5059375;28;20059;-66
2023/10/26 01:06:55;;;;;;;20.15;12.25;;;10.30;99.90;;;;;;5076019;28;20636;-65
2023/10/26 01:09:21;;;;;;;18.08;12.50;;;9.90;99.90;;;;;;5059770;28;20070;-66
2023/10/26 01:11:47;;;;;;;17.67;12.73;;;10.00;99.90;;;;;;5075680;28;20044;-66
2023/10/26 01:14:14;;;;;;;19.80;12.18;;;10.00;99.90;;;;;;5075981;28;20058;-65
2023/10/26 01:16:40;;;;;;;16.65;12.32;;;10.20;99.90;;;;;;5075977;28;20040;-66
2023/10/26 01:19:09;;;;;;;17.73;12.90;;;10.20;99.90;;;;;;5076304;28;20052;-66
2023/10/26 01:21:52;;;;;;;18.08;13.18;;;10.10;99.90;;;;;;5058618;28;20048;-65
2023/10/26 01:24:19;;;;;;;17.77;12.25;;;10.10;99.90;;;;;;5071661;28;20251;-66
2023/10/26 01:26:46;;;;;;;18.85;11.73;;;10.10;99.90;;;;;;5073974;28;20053;-65
2023/10/26 01:29:12;;;;;;;18.95;12.55;;;9.90;99.90;;;;;;5075950;28;20067;-66
2023/10/26 01:31:38;;;;;;;17.88;12.10;;;9.90;99.90;;;;;;5075331;28;20059;-66
2023/10/26 01:34:05;;;;;;;18.77;12.60;;;10.10;99.90;;;;;;5058828;28;20056;-66
2023/10/26 01:36:31;;;;;;;16.23;12.10;;;9.90;99.90;;;;;;5058692;28;20333;-66
2023/10/26 01:39:00;;;;;;;18.08;13.00;;;10.10;99.90;;;;;;5059160;28;20552;-66
2023/10/26 01:41:31;;;;;;;19.88;12.73;;;10.00;99.90;;;;;;5075665;28;20117;-65
2023/10/26 01:43:57;;;;;;;18.95;12.23;;;10.20;99.90;;;;;;5075161;28;20127;-65
2023/10/26 01:46:24;;;;;;;16.40;11.60;;;10.20;99.90;;;;;;5075537;28;20044;-65
2023/10/26 01:48:50;;;;;;;16.77;12.20;;;10.20;99.90;;;;;;5075647;28;20062;-65
2023/10/26 01:51:16;;;;;;;19.55;12.23;;;9.90;99.90;;;;;;5074837;28;20044;-66
2023/10/26 01:53:42;;;;;;;17.33;13.32;;;9.90;99.90;;;;;;5074943;28;20050;-65
2023/10/26 01:56:09;;;;;;;21.35;12.98;;;10.20;99.90;;;;;;5075817;28;20044;-65
2023/10/26 01:58:35;;;;;;;18.65;12.18;;;9.90;99.90;;;;;;5075313;28;20048;-65
2023/10/26 02:01:01;;;;;;;16.52;11.38;;;10.20;99.90;;;;;;5074780;28;20537;-65
2023/10/26 02:03:28;;;;;;;19.15;13.38;;;10.10;99.90;;;;;;5071637;28;20059;-66
2023/10/26 02:05:54;;;;;;;18.48;12.93;;;9.90;99.90;;;;;;5057721;28;20044;-66
2023/10/26 02:08:20;;;;;;;18.17;12.35;;;9.80;99.90;;;;;;5075294;28;20048;-66
2023/10/26 02:10:46;;;;;;;18.65;13.20;;;10.20;99.90;;;;;;5074660;28;20040;-65
2023/10/26 02:13:13;;;;;;;17.45;12.43;;;10.00;99.90;;;;;;5074670;28;20490;-65
2023/10/26 02:15:39;;;;;;;18.27;12.50;;;10.10;99.90;;;;;;5058319;28;20083;-65
2023/10/26 02:18:05;;;;;;;19.48;12.25;;;10.00;99.90;;;;;;5075165;28;20059;-65
2023/10/26 02:20:31;;;;;;;18.48;13.00;;;9.80;99.90;;;;;;5074478;28;20078;-66
2023/10/26 02:22:58;;;;;;;16.33;12.38;;;9.90;99.90;;;;;;5074268;28;20071;-65
2023/10/26 02:25:24;;;;;;;16.60;12.38;;;9.80;99.90;;;;;;5074892;28;20526;-66
2023/10/26 02:27:51;;;;;;;16.38;12.60;;;10.10;99.90;;;;;;5075153;28;20058;-65
2023/10/26 02:30:17;;;;;;;18.50;14.02;;;10.10;99.90;;;;;;5074669;28;20044;-65
2023/10/26 02:32:43;;;;;;;17.13;11.68;;;9.90;99.90;;;;;;5074199;28;20044;-66
2023/10/26 02:35:10;;;;;;;16.85;12.10;;;10.00;99.90;;;;;;5074657;28;20062;-65
2023/10/26 02:37:39;;;;;;;17.88;12.57;;;9.80;99.90;;;;;;5057877;28;20056;-65
2023/10/26 02:40:06;;;;;;;18.88;13.43;;;10.00;99.90;;;;;;5074483;28;20044;-66
2023/10/26 02:42:33;;;;;;;18.33;12.32;;;9.80;99.90;;;;;;5057038;28;20058;-65
2023/10/26 02:44:59;;;;;;;18.38;12.60;;;9.80;99.90;;;;;;5073924;28;20062;-66
2023/10/26 02:47:25;;;;;;;18.02;11.77;;;10.10;99.90;;;;;;5074244;28;20048;-65
2023/10/26 02:49:52;;;;;;;19.17;13.25;;;9.80;99.90;;;;;;5074028;28;20052;-65
2023/10/26 02:52:18;;;;;;;18.88;12.57;;;9.80;99.90;;;;;;5073373;28;20044;-66
2023/10/26 02:54:45;;;;;;;17.52;12.43;;;9.80;99.90;;;;;;5054288;28;20055;-65
2023/10/26 02:57:14;;;;;;;17.30;12.18;;;9.80;99.90;;;;;;5054094;28;20480;-65
2023/10/26 02:59:40;;;;;;;17.63;11.75;;;9.90;99.90;;;;;;5054310;28;20494;-65
2023/10/26 03:02:07;;;;;;;16.75;12.07;;;9.80;99.90;;;;;;5053653;28;20118;-65
2023/10/26 03:04:37;;;;;;;16.45;11.82;;;9.80;99.90;;;;;;5072885;28;20379;-65
2023/10/26 03:07:04;;;;;;;17.50;12.10;;;9.80;99.90;;;;;;5062675;28;20273;-65
2023/10/26 03:09:30;;;;;;;17.38;12.10;;;9.80;99.90;;;;;;5070455;28;20136;-65
2023/10/26 03:11:56;;;;;;;16.45;12.75;;;10.10;99.90;;;;;;5072922;28;20048;-65
2023/10/26 03:14:23;;;;;;;15.95;11.82;;;9.70;99.90;;;;;;5072668;28;20127;-65
2023/10/26 03:16:49;;;;;;;17.23;12.52;;;10.00;99.90;;;;;;5057007;28;20052;-65
2023/10/26 03:19:15;;;;;;;17.92;13.20;;;10.00;99.90;;;;;;5073116;28;20488;-65
2023/10/26 03:21:42;;;;;;;18.02;12.48;;;9.80;99.90;;;;;;5073116;28;20109;-65
2023/10/26 03:24:08;;;;;;;17.30;12.98;;;10.00;99.90;;;;;;5072790;28;20058;-65
2023/10/26 03:26:35;;;;;;;18.35;13.57;;;10.00;99.90;;;;;;5073311;28;20052;-65
2023/10/26 03:29:01;;;;;;;17.27;12.65;;;9.70;99.90;;;;;;5072223;28;20051;-65
2023/10/26 03:31:28;;;;;;;20.20;13.93;;;9.90;99.90;;;;;;5056337;28;20052;-65
2023/10/26 03:33:54;;;;;;;17.75;12.13;;;9.90;99.90;;;;;;5072413;28;20044;-66
2023/10/26 03:36:20;;;;;;;18.30;12.93;;;9.80;99.90;;;;;;5072990;28;20052;-65
2023/10/26 03:38:50;;;;;;;17.23;12.00;;;9.60;99.90;;;;;;5073081;28;20113;-65
2023/10/26 03:41:18;;;;;;;16.45;13.00;;;9.50;99.90;;;;;;5072348;28;20055;-65
2023/10/26 03:43:45;;;;;;;19.52;12.32;;;9.50;99.90;;;;;;5055356;28;20245;-65
2023/10/26 03:46:11;;;;;;;18.90;12.88;;;9.80;99.90;;;;;;5056291;28;20048;-65
2023/10/26 03:48:37;;;;;;;17.52;12.90;;;9.60;99.90;;;;;;5073252;28;20056;-65
2023/10/26 03:51:04;;;;;;;18.17;12.73;;;9.80;99.90;;;;;;5072604;28;20311;-65
2023/10/26 03:53:31;;;;;;;17.73;12.82;;;9.50;99.90;;;;;;5072637;28;20177;-65
2023/10/26 03:55:57;;;;;;;20.20;12.98;;;9.50;99.90;;;;;;5072485;28;20067;-65
2023/10/26 03:58:24;;;;;;;18.42;12.77;;;9.60;99.90;;;;;;5072513;28;20424;-65
2023/10/26 04:00:51;;;;;;;18.90;13.40;;;9.50;99.90;;;;;;5071836;28;20063;-65
2023/10/26 04:03:17;;;;;;;19.45;13.70;;;9.70;99.90;;;;;;5072182;28;20052;-65
2023/10/26 04:05:43;;;;;;;17.23;12.75;;;9.60;99.90;;;;;;5072263;28;20063;-65
2023/10/26 04:08:10;;;;;;;17.90;12.27;;;9.40;99.90;;;;;;5072615;28;20067;-65
2023/10/26 04:10:36;;;;;;;20.90;12.70;;;9.60;99.90;;;;;;5072244;28;20048;-64
2023/10/26 04:13:03;;;;;;;18.60;12.75;;;9.40;99.90;;;;;;5073001;28;20093;-65
2023/10/26 04:15:29;;;;;;;19.77;12.32;;;9.40;99.90;;;;;;5072862;28;20071;-65
2023/10/26 04:17:55;;;;;;;21.45;13.10;;;9.20;99.90;;;;;;5072844;28;20456;-65
2023/10/26 04:20:22;;;;;;;20.17;14.65;;;9.50;99.90;;;;;;5072913;28;20458;-65
2023/10/26 04:22:48;;;;;;;15.65;12.23;;;9.50;99.90;;;;;;5072046;28;20044;-65
2023/10/26 04:25:14;;;;;;;17.23;12.93;;;9.30;99.90;;;;;;5072450;28;20052;-65
2023/10/26 04:27:40;;;;;;;17.83;12.35;;;9.30;99.90;;;;;;5072721;28;20048;-65
2023/10/26 04:30:07;;;;;;;17.00;12.93;;;9.10;99.90;;;;;;5072592;28;20048;-65
2023/10/26 04:32:33;;;;;;;15.68;11.63;;;9.10;99.90;;;;;;5055221;28;20048;-65
2023/10/26 04:35:00;;;;;;;17.95;13.32;;;9.10;99.90;;;;;;5072469;28;20048;-65
2023/10/26 04:37:26;;;;;;;17.52;12.82;;;9.30;99.90;;;;;;5072376;28;20079;-65
2023/10/26 04:39:52;;;;;;;21.08;14.00;;;9.10;99.90;;;;;;5071437;28;20383;-65
2023/10/26 04:42:19;;;;;;;19.02;13.15;;;9.10;99.90;;;;;;5076542;28;20059;-65
2023/10/26 04:44:46;;;;;;;19.60;12.77;;;9.10;99.90;;;;;;5076067;28;20044;-66
2023/10/26 04:47:12;;;;;;;34.08;14.25;;;9.20;99.90;;;;;;5060144;28;20058;-64
2023/10/26 04:49:38;;;;;;;46.53;16.02;;;9.10;99.90;;;;;;5077205;28;20063;-64
2023/10/26 04:52:05;;;;;;;85.22;16.85;;;9.40;99.90;;;;;;5076344;28;20474;-65
2023/10/26 04:54:31;;;;;;;126.53;18.90;;;9.10;99.90;;;;;;5076755;28;20063;-65
2023/10/26 04:56:57;;;;;;;82.15;18.83;;;9.10;99.90;;;;;;5060020;28;20074;-64
2023/10/26 04:59:24;;;;;;;163.75;19.42;;;9.10;99.90;;;;;;5076790;28;20054;-64
2023/10/26 05:01:51;;;;;;;214.90;21.70;;;9.30;99.90;;;;;;5058995;28;20044;-64
2023/10/26 05:04:18;;;;;;;128.43;18.95;;;9.20;99.90;;;;;;5059407;28;20430;-64
2023/10/26 05:06:44;;;;;;;95.20;16.27;;;9.30;99.90;;;;;;5075283;28;20091;-64
2023/10/26 05:09:10;;;;;;;160.85;19.40;;;9.10;99.90;;;;;;5076826;28;20063;-64
2023/10/26 05:11:36;;;;;;;228.02;22.92;;;9.30;99.90;;;;;;5075706;28;20460;-64
2023/10/26 05:14:04;;;;;;;142.40;18.70;;;9.30;99.90;;;;;;5045911;28;20491;-64
2023/10/26 05:16:30;;;;;;;162.30;19.45;;;9.30;99.90;;;;;;5068179;28;20052;-64
2023/10/26 05:18:56;;;;;;;108.47;16.48;;;9.00;99.90;;;;;;5072601;28;20097;-65
2023/10/26 05:21:23;;;;;;;93.45;16.10;;;9.30;99.90;;;;;;5071098;28;20051;-65
2023/10/26 05:23:49;;;;;;;85.97;16.02;;;9.10;99.90;;;;;;5063455;28;20048;-65
2023/10/26 05:26:15;;;;;;;84.45;15.75;;;9.30;99.90;;;;;;5065066;28;20048;-65
2023/10/26 05:28:46;;;;;;;94.47;15.73;;;9.10;99.90;;;;;;5057597;28;20499;-66
2023/10/26 05:31:12;;;;;;;133.48;17.58;;;9.40;99.90;;;;;;5074867;28;20062;-66
2023/10/26 05:33:38;;;;;;;82.75;15.45;;;9.10;99.90;;;;;;5074233;28;20055;-66
2023/10/26 05:36:05;;;;;;;102.90;15.55;;;9.40;99.90;;;;;;5074547;28;20044;-66
2023/10/26 05:38:31;;;;;;;134.70;17.95;;;9.00;99.90;;;;;;5055791;28;20435;-65
2023/10/26 05:40:57;;;;;;;80.35;15.43;;;9.00;99.90;;;;;;5075019;28;20109;-65
2023/10/26 05:43:24;;;;;;;72.32;13.85;;;9.00;99.90;;;;;;5070014;28;20468;-66
2023/10/26 05:45:51;;;;;;;80.47;15.45;;;9.30;99.90;;;;;;5073582;28;20043;-66
2023/10/26 05:48:19;;;;;;;116.70;16.15;;;9.20;99.90;;;;;;5073750;28;20483;-66
2023/10/26 05:50:46;;;;;;;60.00;14.65;;;9.30;99.90;;;;;;5072709;28;20051;-67
2023/10/26 05:53:12;;;;;;;43.22;12.88;;;9.00;99.90;;;;;;5056804;28;20271;-67
2023/10/26 05:55:41;;;;;;;93.03;14.75;;;9.00;99.90;;;;;;5073699;28;20461;-66
2023/10/26 05:58:10;;;;;;;53.63;13.68;;;9.00;99.90;;;;;;5072994;28;20047;-64
2023/10/26 06:00:38;;;;;;;60.65;14.50;;;9.10;99.90;;;;;;5073571;28;20522;-66
2023/10/26 06:03:04;;;;;;;48.50;13.57;;;8.90;99.90;;;;;;5066301;28;20056;-65
2023/10/26 06:05:31;;;;;;;42.08;12.43;;;9.10;99.90;;;;;;5073016;28;20043;-65
2023/10/26 06:07:57;;;;;;;35.40;13.10;;;9.20;99.90;;;;;;5073242;28;20426;-65
2023/10/26 06:10:24;;;;;;;47.90;13.50;;;8.90;99.90;;;;;;5056545;28;20051;-66
2023/10/26 06:12:50;;;;;;;50.28;14.30;;;9.20;99.90;;;;;;5071032;28;20044;-66
2023/10/26 06:15:17;;;;;;;22.55;13.20;;;8.90;99.90;;;;;;5072763;28;20048;-65
2023/10/26 06:17:43;;;;;;;43.70;13.07;;;8.90;99.90;;;;;;5067020;28;20121;-66
2023/10/26 06:20:10;;;;;;;29.60;13.73;;;8.90;99.90;;;;;;5050357;28;20044;-66
2023/10/26 06:22:36;;;;;;;38.72;14.38;;;9.00;99.90;;;;;;5072604;28;20056;-66
2023/10/26 06:25:05;;;;;;;33.60;13.00;;;8.90;99.90;;;;;;5073057;28;20372;-65
2023/10/26 06:27:31;;;;;;;40.15;13.70;;;8.80;99.90;;;;;;5074534;28;20044;-65
2023/10/26 06:29:58;;;;;;;33.42;11.82;;;9.00;99.90;;;;;;5057951;28;20040;-65
2023/10/26 06:32:24;;;;;;;29.52;13.20;;;8.90;99.90;;;;;;5075304;28;20051;-65
2023/10/26 06:34:50;;;;;;;117.82;15.98;;;9.00;99.90;;;;;;5065424;28;20056;-65
2023/10/26 06:37:17;;;;;;;65.97;13.45;;;8.80;99.90;;;;;;5055445;28;20063;-66
2023/10/26 06:39:43;;;;;;;85.03;15.57;;;8.70;99.90;;;;;;5055060;28;20055;-65
2023/10/26 06:42:09;;;;;;;65.90;14.23;;;8.80;99.90;;;;;;5055574;28;20056;-65
2023/10/26 06:44:39;;;;;;;57.33;14.17;;;8.70;99.90;;;;;;5021587;28;1170664;-65
2023/10/26 06:47:05;;;;;;;54.90;14.32;;;8.70;99.90;;;;;;5039577;28;20040;-65
2023/10/26 06:49:31;;;;;;;130.98;16.95;;;8.90;99.90;;;;;;5039393;28;20139;-66
2023/10/26 06:51:58;;;;;;;124.95;16.13;;;8.60;99.90;;;;;;5055059;28;20048;-65
2023/10/26 06:54:24;;;;;;;124.57;15.57;;;8.90;99.90;;;;;;5054214;28;20117;-65
2023/10/26 06:56:50;;;;;;;90.43;14.57;;;8.70;99.90;;;;;;5056330;28;20361;-65
2023/10/26 06:59:16;;;;;;;98.63;15.13;;;8.60;99.90;;;;;;5055387;28;20044;-65
2023/10/26 07:01:44;;;;;;;88.82;14.20;;;8.90;99.90;;;;;;5055711;28;20071;-66
2023/10/26 07:04:10;;;;;;;80.20;15.32;;;8.80;99.90;;;;;;5038240;28;20413;-66
2023/10/26 07:06:37;;;;;;;97.57;14.35;;;8.80;99.90;;;;;;5055454;28;20123;-66
2023/10/26 07:09:03;;;;;;;83.65;14.93;;;8.90;99.90;;;;;;5039403;28;20049;-66
2023/10/26 07:11:29;;;;;;;84.93;14.40;;;8.80;99.90;;;;;;5055058;28;20052;-66
2023/10/26 07:13:56;;;;;;;57.22;12.40;;;8.60;99.90;;;;;;5052029;28;20049;-66
2023/10/26 07:16:22;;;;;;;79.30;15.25;;;8.90;99.90;;;;;;5055269;28;20045;-67
2023/10/26 07:18:49;;;;;;;82.32;14.60;;;8.70;99.90;;;;;;5055077;28;20056;-67
2023/10/26 07:21:15;;;;;;;81.68;13.75;;;8.90;99.90;;;;;;5054950;28;20049;-67
2023/10/26 07:23:41;;;;;;;57.40;13.13;;;8.70;99.90;;;;;;5055781;28;20048;-68
2023/10/26 07:26:08;;;;;;;88.93;14.52;;;8.60;99.90;;;;;;5052288;28;20122;-67
2023/10/26 07:28:34;;;;;;;99.25;15.30;;;8.70;99.90;;;;;;5054640;28;20068;-67
2023/10/26 07:31:00;;;;;;;107.97;16.30;;;8.80;99.90;;;;;;5055017;28;20051;-66
2023/10/26 07:33:26;;;;;;;64.13;13.85;;;9.00;99.90;;;;;;5054220;28;20048;-67
2023/10/26 07:35:58;;;;;;;80.95;14.27;;;8.80;99.90;;;;;;5038455;28;20372;-67
2023/10/26 07:38:24;;;;;;;57.20;14.77;;;8.90;99.90;;;;;;5037487;28;20045;-67
2023/10/26 07:40:52;;;;;;;96.30;16.95;;;8.80;99.90;;;;;;5052312;28;20062;-67
2023/10/26 07:43:20;;;;;;;101.22;16.45;;;9.00;99.90;;;;;;5025179;28;20051;-67
2023/10/26 07:45:47;;;;;;;72.13;15.15;;;9.20;99.90;;;;;;5073513;28;20067;-67
2023/10/26 07:48:15;;;;;;;81.70;16.67;;;9.00;99.90;;;;;;5074482;28;20114;-67
2023/10/26 07:50:41;;;;;;;72.55;15.38;;;9.10;99.90;;;;;;5074561;28;20155;-67
2023/10/26 07:53:08;;;;;;;102.03;16.85;;;9.20;99.90;;;;;;5069453;28;20044;-67
2023/10/26 07:55:34;;;;;;;132.77;17.67;;;8.90;99.90;;;;;;5054377;28;20047;-67
2023/10/26 07:58:03;;;;;;;72.80;16.50;;;9.10;99.90;;;;;;5054393;28;20102;-67
2023/10/26 08:00:30;;;;;;;70.28;17.35;;;9.30;99.90;;;;;;5054418;28;20330;-67
2023/10/26 08:02:58;;;;;;;129.10;18.70;;;9.10;99.90;;;;;;5057863;28;20136;-67
2023/10/26 08:05:25;;;;;;;172.70;21.92;;;9.40;99.90;;;;;;5074481;28;20052;-66
2023/10/26 08:07:52;;;;;;;82.15;17.50;;;9.30;99.90;;;;;;5057449;28;20054;-67
2023/10/26 08:10:18;;;;;;;88.57;17.98;;;9.30;99.90;;;;;;5074676;28;20051;-67
2023/10/26 08:12:45;;;;;;;80.53;16.95;;;9.60;99.90;;;;;;5057423;28;20044;-67
2023/10/26 08:15:11;;;;;;;71.57;17.10;;;9.30;99.90;;;;;;5074544;28;20040;-67
2023/10/26 08:17:37;;;;;;;105.38;18.80;;;9.50;99.90;;;;;;5074047;28;20471;-66
2023/10/26 08:20:07;;;;;;;58.15;16.08;;;9.50;99.90;;;;;;5074369;28;20048;-67
2023/10/26 08:22:34;;;;;;;47.67;16.15;;;9.50;99.90;;;;;;5073811;28;20062;-66
2023/10/26 08:25:00;;;;;;;49.10;15.32;;;9.20;99.90;;;;;;5074389;28;20048;-67
2023/10/26 08:27:26;;;;;;;57.95;15.43;;;9.30;99.90;;;;;;5053634;28;20107;-67
2023/10/26 08:29:53;;;;;;;46.17;15.20;;;9.30;99.90;;;;;;5054152;28;20055;-67
2023/10/26 08:32:19;;;;;;;35.03;15.30;;;9.50;99.90;;;;;;5037457;28;20048;-67
2023/10/26 08:34:46;;;;;;;47.47;16.58;;;9.60;99.90;;;;;;5071684;28;20063;-66
2023/10/26 08:37:13;;;;;;;44.20;17.60;;;9.60;99.90;;;;;;5073880;28;20142;-66
2023/10/26 08:39:40;;;;;;;34.17;16.08;;;9.80;99.90;;;;;;5074627;28;20056;-67
2023/10/26 08:42:08;;;;;;;36.58;16.45;;;9.70;99.90;;;;;;5057621;28;20056;-67
2023/10/26 08:44:35;;;;;;;31.42;17.67;;;9.90;99.90;;;;;;5063945;28;20055;-67
2023/10/26 08:47:05;;;;;;;26.08;16.63;;;10.00;99.90;;;;;;5054180;28;20049;-66
2023/10/26 08:49:33;;;;;;;23.95;15.30;;;10.10;99.90;;;;;;5037176;28;20058;-67
2023/10/26 08:52:00;;;;;;;23.42;16.80;;;10.20;99.90;;;;;;5053955;28;20056;-66
2023/10/26 08:54:27;;;;;;;30.80;16.80;;;10.40;99.90;;;;;;5037605;28;20049;-67
2023/10/26 08:56:53;;;;;;;26.55;16.70;;;10.40;99.90;;;;;;5018002;28;20362;-66
2023/10/26 08:59:23;;;;;;;31.35;17.17;;;10.80;99.90;;;;;;5017659;28;20076;-67
2023/10/26 09:01:49;;;;;;;23.80;15.13;;;10.70;99.90;;;;;;5033698;28;20063;-66
2023/10/26 09:04:16;;;;;;;23.05;16.27;;;10.90;99.90;;;;;;5047248;28;20090;-67
2023/10/26 09:06:47;;;;;;;22.10;15.13;;;11.10;99.90;;;;;;5053849;28;20051;-66
2023/10/26 09:09:14;;;;;;;23.60;16.88;;;10.90;99.90;;;;;;5053844;28;20053;-67
2023/10/26 09:11:41;;;;;;;23.90;16.98;;;11.10;99.90;;;;;;5054142;28;20056;-66
2023/10/26 09:14:18;;;;;;;22.85;16.77;;;11.20;99.90;;;;;;5036625;28;20044;-66
2023/10/26 09:16:46;;;;;;;19.38;15.25;;;11.50;99.90;;;;;;5053727;28;20372;-66
2023/10/26 09:19:14;;;;;;;20.58;15.45;;;11.30;99.90;;;;;;5036988;28;20060;-66
2023/10/26 09:21:52;;;;;;;21.98;16.25;;;11.40;99.90;;;;;;5053611;28;20387;-67
2023/10/26 09:24:26;;;;;;;19.23;14.20;;;11.50;99.90;;;;;;5040521;28;20055;-66
2023/10/26 09:26:53;;;;;;;19.40;15.10;;;11.40;99.90;;;;;;5050797;28;20102;-66
2023/10/26 09:29:21;;;;;;;20.40;14.85;;;11.30;99.90;;;;;;5039960;28;20052;-67
2023/10/26 09:31:55;;;;;;;20.95;15.48;;;11.20;99.90;;;;;;5057202;28;20103;-66
2023/10/26 09:34:26;;;;;;;20.13;14.93;;;11.30;99.90;;;;;;5039871;28;20420;-67
2023/10/26 09:37:04;;;;;;;21.38;15.85;;;11.30;99.90;;;;;;5057241;28;20048;-66
2023/10/26 09:39:35;;;;;;;19.70;14.93;;;11.30;99.90;;;;;;5057383;28;20053;-67
2023/10/26 09:42:03;;;;;;;19.70;14.88;;;11.20;99.90;;;;;;5057295;28;20052;-67
2023/10/26 09:44:30;;;;;;;21.73;16.80;;;11.50;99.90;;;;;;5039517;28;20060;-66
2023/10/26 09:46:57;;;;;;;19.40;15.10;;;11.40;99.90;;;;;;5040250;28;20064;-66
2023/10/26 09:49:25;;;;;;;20.60;15.77;;;11.20;99.90;;;;;;5057067;28;20094;-66
2023/10/26 09:51:52;;;;;;;21.33;15.98;;;11.20;99.90;;;;;;5056963;28;20052;-66
2023/10/26 09:54:20;;;;;;;23.45;16.73;;;11.40;99.90;;;;;;5043132;28;20060;-66
2023/10/26 09:56:51;;;;;;;19.85;15.20;;;11.30;99.90;;;;;;5035684;28;20053;-66
2023/10/26 09:59:18;;;;;;;18.52;14.73;;;11.50;99.90;;;;;;5035229;28;20048;-66
2023/10/26 10:01:45;;;;;;;22.23;16.73;;;11.70;99.90;;;;;;5019198;28;20053;-66
2023/10/26 10:04:13;;;;;;;24.25;16.58;;;11.70;99.90;;;;;;5047655;28;20526;-66
2023/10/26 10:06:50;;;;;;;22.35;15.93;;;11.60;99.90;;;;;;5039021;28;20490;-66
2023/10/26 10:09:24;;;;;;;21.17;16.30;;;11.70;99.90;;;;;;5055380;28;20044;-66
2023/10/26 10:12:11;;;;;;;21.20;16.40;;;11.80;99.90;;;;;;5056794;28;20048;-66
2023/10/26 10:14:51;;;;;;;21.92;15.88;;;11.60;99.90;;;;;;5038948;28;20044;-66
2023/10/26 10:17:46;;;;;;;24.67;15.95;;;11.70;99.90;;;;;;5055898;28;20060;-66
2023/10/26 10:20:16;;;;;;;22.80;16.48;;;11.60;99.90;;;;;;5031007;28;20411;-66
2023/10/26 10:22:51;;;;;;;22.40;16.15;;;11.80;99.90;;;;;;5056034;28;20056;-66
2023/10/26 10:25:18;;;;;;;19.10;15.35;;;11.70;99.90;;;;;;5058605;28;20111;-66
2023/10/26 10:27:50;;;;;;;21.75;16.30;;;11.60;99.90;;;;;;5075486;28;20440;-66
2023/10/26 10:30:21;;;;;;;20.23;15.75;;;11.70;99.90;;;;;;5070320;28;20052;-67
2023/10/26 10:32:48;;;;;;;18.92;14.48;;;11.80;99.90;;;;;;5035868;28;20512;-67
2023/10/26 10:35:21;;;;;;;21.27;16.02;;;11.90;99.90;;;;;;5053243;28;20040;-67
2023/10/26 10:38:16;;;;;;;21.52;16.08;;;12.00;99.90;;;;;;5035243;28;20070;-67
2023/10/26 10:40:55;;;;;;;19.70;15.57;;;11.90;99.90;;;;;;5055177;28;20056;-66
2023/10/26 10:43:46;;;;;;;19.67;14.65;;;11.90;99.90;;;;;;5029351;28;20084;-66
2023/10/26 10:46:12;;;;;;;18.88;14.85;;;11.60;99.90;;;;;;5061338;28;20045;-66
2023/10/26 10:48:59;;;;;;;21.30;15.32;;;11.60;99.90;;;;;;5054732;28;20049;-67
2023/10/26 10:51:37;;;;;;;22.45;15.75;;;11.70;99.90;;;;;;5055284;28;20044;-67
2023/10/26 10:54:08;;;;;;;21.05;15.65;;;11.60;99.90;;;;;;5055222;28;20358;-66
2023/10/26 10:56:37;;;;;;;21.85;16.05;;;11.60;99.90;;;;;;5052149;28;20053;-67
2023/10/26 10:59:17;;;;;;;20.05;14.98;;;11.50;99.90;;;;;;5035364;28;20405;-67
2023/10/26 11:01:44;;;;;;;23.23;16.00;;;11.70;99.90;;;;;;5018921;28;20045;-67
2023/10/26 11:04:13;;;;;;;21.48;15.70;;;11.80;99.90;;;;;;5036098;28;20059;-67
2023/10/26 11:06:44;;;;;;;21.55;15.13;;;11.90;99.90;;;;;;5035305;28;20438;-67
2023/10/26 11:09:29;;;;;;;19.75;14.77;;;12.00;99.90;;;;;;5054209;28;20106;-67
2023/10/26 11:12:07;;;;;;;20.00;14.82;;;12.00;99.90;;;;;;5055529;28;20048;-67
2023/10/26 11:14:33;;;;;;;21.77;16.52;;;12.00;99.90;;;;;;5055002;28;20111;-67
2023/10/26 11:17:00;;;;;;;20.92;14.25;;;12.10;99.90;;;;;;5055047;28;20060;-67
2023/10/26 11:19:26;;;;;;;18.98;14.15;;;12.10;99.90;;;;;;5055081;28;20499;-67
2023/10/26 11:21:55;;;;;;;18.15;13.88;;;12.10;99.90;;;;;;5054839;28;20395;-67
2023/10/26 11:24:31;;;;;;;17.92;13.88;;;12.20;99.90;;;;;;5054804;28;20045;-67
2023/10/26 11:27:18;;;;;;;17.27;13.77;;;12.20;99.90;;;;;;5054738;28;20059;-67
2023/10/26 11:29:58;;;;;;;19.73;14.25;;;12.30;99.90;;;;;;5054930;28;20072;-66
2023/10/26 11:32:25;;;;;;;21.30;14.23;;;12.40;99.90;;;;;;5055030;28;20048;-67
2023/10/26 11:35:13;;;;;;;16.13;12.38;;;12.50;99.90;;;;;;5054780;28;20086;-67
2023/10/26 11:37:41;;;;;;;17.38;13.10;;;12.50;99.90;;;;;;5054794;28;20056;-67
2023/10/26 11:40:10;;;;;;;18.70;13.05;;;12.60;99.90;;;;;;5054697;28;20513;-67
2023/10/26 11:43:05;;;;;;;18.20;12.55;;;12.60;99.90;;;;;;5054819;28;20096;-67
2023/10/26 11:45:47;;;;;;;18.65;13.10;;;12.40;99.90;;;;;;5036483;28;20049;-67
2023/10/26 11:48:26;;;;;;;20.05;15.50;;;12.40;99.90;;;;;;5054419;28;20383;-67
2023/10/26 11:50:52;;;;;;;18.02;13.73;;;12.40;99.90;;;;;;5054857;28;20049;-67
2023/10/26 11:53:22;;;;;;;18.85;14.05;;;12.40;99.90;;;;;;5053782;28;20631;-67
2023/10/26 11:55:50;;;;;;;23.23;15.30;;;12.30;99.90;;;;;;5038153;28;20144;-67
2023/10/26 11:58:17;;;;;;;20.85;14.45;;;12.50;99.90;;;;;;5054090;28;20056;-67
2023/10/26 12:00:44;;;;;;;19.52;13.70;;;12.40;99.90;;;;;;5054523;28;20048;-67
2023/10/26 12:03:10;;;;;;;18.05;13.82;;;12.50;99.90;;;;;;5053611;28;20049;-67
2023/10/26 12:05:37;;;;;;;18.90;13.50;;;12.50;99.90;;;;;;5054591;28;20114;-67
2023/10/26 12:08:03;;;;;;;18.10;13.63;;;12.50;99.90;;;;;;5053955;28;20056;-67
2023/10/26 12:10:30;;;;;;;18.48;13.60;;;12.60;99.90;;;;;;5038762;28;20060;-68
2023/10/26 12:13:01;;;;;;;18.35;13.32;;;12.60;99.90;;;;;;5035751;28;20067;-67
2023/10/26 12:15:28;;;;;;;18.13;13.18;;;12.50;99.90;;;;;;5034418;28;20131;-67
2023/10/26 12:17:54;;;;;;;20.48;13.30;;;12.50;99.90;;;;;;5033865;28;20454;-67
2023/10/26 12:20:21;;;;;;;18.45;13.52;;;12.60;99.90;;;;;;5034512;28;20061;-67
2023/10/26 12:22:48;;;;;;;18.02;12.98;;;12.70;99.90;;;;;;5034341;28;20049;-67
2023/10/26 12:25:15;;;;;;;13.70;10.93;;;12.60;99.90;;;;;;5034454;28;20059;-67
2023/10/26 12:27:41;;;;;;;14.10;11.90;;;12.50;99.90;;;;;;5034079;28;20076;-67
2023/10/26 12:30:08;;;;;;;16.13;11.52;;;12.50;99.90;;;;;;5034635;28;20044;-67
2023/10/26 12:32:34;;;;;;;13.52;10.73;;;12.50;99.90;;;;;;5034406;28;20045;-68
2023/10/26 12:35:02;;;;;;;15.70;11.88;;;12.50;99.90;;;;;;5051715;28;20052;-67